Time;durP1;ratioP1;P1;durP2;ratioP2;P2;SDS_P1;SDS_P2;PMS_P1;PMS_P2;Temp;Humidity;BMP_temperature;BMP_pressure;BME280_temperature;BME280_humidity;BME280_pressure;Samples;Min_cycle;Max_cycle;Signal;HPM_P1;HPM_P2
2021/12/01 00:00:04;;;;;;;3.00;2.60;;;5.70;99.90;;;;;;5021297;28;20431;-55
2021/12/01 00:02:30;;;;;;;2.40;2.20;;;5.70;99.90;;;;;;5022764;28;20427;-53
2021/12/01 00:04:55;;;;;;;2.70;2.10;;;5.70;99.90;;;;;;5007374;28;20813;-54
2021/12/01 00:07:22;;;;;;;2.27;1.93;;;5.70;99.90;;;;;;5006826;28;20456;-56
2021/12/01 00:09:47;;;;;;;3.33;2.60;;;5.70;99.90;;;;;;5019425;28;20177;-52
2021/12/01 00:12:13;;;;;;;2.40;2.10;;;5.70;99.90;;;;;;5018741;28;20485;-55
2021/12/01 00:14:39;;;;;;;2.10;1.90;;;5.70;99.90;;;;;;5005816;28;20207;-53
2021/12/01 00:17:04;;;;;;;4.53;2.40;;;5.70;99.90;;;;;;5024734;28;20191;-54
2021/12/01 00:19:30;;;;;;;2.50;2.20;;;5.80;99.90;;;;;;5004042;28;20192;-54
2021/12/01 00:21:56;;;;;;;1.67;1.57;;;5.80;99.90;;;;;;5017297;28;20185;-54
2021/12/01 00:24:22;;;;;;;3.30;1.53;;;5.80;99.90;;;;;;5024182;28;20216;-55
2021/12/01 00:26:48;;;;;;;2.13;1.93;;;5.80;99.90;;;;;;5016558;28;20459;-56
2021/12/01 00:29:13;;;;;;;4.87;2.43;;;5.90;99.90;;;;;;5024309;28;20828;-55
2021/12/01 00:31:41;;;;;;;2.03;1.70;;;5.90;99.90;;;;;;5022365;28;20199;-55
2021/12/01 00:34:07;;;;;;;2.07;1.43;;;5.90;99.90;;;;;;5020561;28;20227;-55
2021/12/01 00:36:33;;;;;;;1.83;1.67;;;6.00;99.90;;;;;;5023787;28;20423;-54
2021/12/01 00:38:58;;;;;;;3.17;1.83;;;6.00;99.90;;;;;;5021140;28;20257;-53
2021/12/01 00:41:25;;;;;;;3.03;1.97;;;6.00;99.90;;;;;;5022147;28;20196;-54
2021/12/01 00:43:51;;;;;;;2.50;1.70;;;6.00;99.90;;;;;;5020520;28;20263;-51
2021/12/01 00:46:24;;;;;;;1.67;1.57;;;6.10;99.90;;;;;;5020288;28;20459;-54
2021/12/01 00:48:50;;;;;;;2.50;1.83;;;6.00;99.90;;;;;;5022593;28;20466;-53
2021/12/01 00:51:16;;;;;;;1.87;1.57;;;6.10;99.90;;;;;;5003997;28;20476;-55
2021/12/01 00:53:43;;;;;;;3.60;2.00;;;6.10;99.90;;;;;;5021806;28;20465;-51
2021/12/01 00:56:10;;;;;;;2.30;1.80;;;6.10;99.90;;;;;;5019863;28;20430;-53
2021/12/01 00:58:36;;;;;;;2.63;1.73;;;6.10;99.90;;;;;;5020572;28;20450;-54
2021/12/01 01:01:02;;;;;;;1.83;1.63;;;6.10;99.90;;;;;;5019950;28;21154;-52
2021/12/01 01:03:30;;;;;;;2.10;1.90;;;6.10;99.90;;;;;;5021314;28;20430;-53
2021/12/01 01:05:56;;;;;;;2.77;1.93;;;6.10;99.90;;;;;;5020365;28;20451;-54
2021/12/01 01:08:22;;;;;;;2.47;1.93;;;6.10;99.90;;;;;;5026375;28;20451;-53
2021/12/01 01:16:23;;;;;;;3.50;2.07;;;6.10;99.90;;;;;;5023464;28;20430;-53
2021/12/01 01:19:04;;;;;;;4.13;1.73;;;6.10;99.90;;;;;;5008620;28;20461;-53
2021/12/01 01:21:34;;;;;;;3.80;2.37;;;6.10;99.90;;;;;;5014836;28;20478;-55
2021/12/01 01:24:01;;;;;;;6.70;2.40;;;6.10;99.90;;;;;;5024152;28;20430;-51
2021/12/01 01:26:28;;;;;;;2.13;1.93;;;6.10;99.90;;;;;;5027150;28;20517;-55
2021/12/01 01:28:54;;;;;;;2.90;2.20;;;6.10;99.90;;;;;;5003242;28;20558;-51
2021/12/01 01:31:20;;;;;;;2.43;2.20;;;6.00;99.90;;;;;;5024748;28;20519;-51
2021/12/01 01:33:47;;;;;;;1.90;1.73;;;6.10;99.90;;;;;;5027502;28;20845;-53
2021/12/01 01:36:13;;;;;;;2.10;1.80;;;6.10;99.90;;;;;;5027270;28;20473;-54
2021/12/01 01:38:39;;;;;;;3.23;2.00;;;6.10;99.90;;;;;;5022122;28;20454;-54
2021/12/01 01:41:08;;;;;;;2.43;2.00;;;6.10;99.90;;;;;;5025983;28;20427;-53
2021/12/01 01:43:34;;;;;;;2.33;2.13;;;6.10;99.90;;;;;;5023001;28;20420;-50
2021/12/01 01:46:00;;;;;;;4.20;2.33;;;6.10;99.90;;;;;;5025860;28;20475;-55
2021/12/01 01:48:30;;;;;;;3.93;2.50;;;6.10;99.90;;;;;;5036367;22;20499;-52
2021/12/01 01:50:58;;;;;;;4.07;2.10;;;6.10;99.90;;;;;;5008939;28;20471;-53
2021/12/01 01:53:26;;;;;;;3.43;2.53;;;6.10;99.90;;;;;;5004704;28;20439;-53
2021/12/01 01:55:58;;;;;;;3.20;2.30;;;6.20;99.90;;;;;;5023681;28;20447;-48
2021/12/01 01:58:24;;;;;;;4.30;2.33;;;6.20;99.90;;;;;;5019145;28;20637;-53
2021/12/01 02:03:31;;;;;;;2.57;2.00;;;6.20;99.90;;;;;;5022493;28;20534;-51
2021/12/01 02:05:56;;;;;;;2.97;2.20;;;6.20;99.90;;;;;;5019863;28;20550;-53
2021/12/01 02:08:33;;;;;;;2.20;1.70;;;6.30;99.90;;;;;;5005076;28;20213;-54
2021/12/01 02:11:01;;;;;;;4.60;1.97;;;6.20;99.90;;;;;;5021930;28;20319;-53
2021/12/01 02:13:28;;;;;;;2.30;1.60;;;6.20;99.90;;;;;;5024071;28;20754;-51
2021/12/01 02:15:55;;;;;;;2.40;1.97;;;6.30;99.90;;;;;;5009333;28;20550;-54
2021/12/01 02:18:22;;;;;;;2.07;1.80;;;6.30;99.90;;;;;;5019011;28;20959;-50
2021/12/01 02:20:59;;;;;;;7.43;2.00;;;6.30;99.90;;;;;;5022648;28;20821;-53
2021/12/01 02:23:26;;;;;;;2.80;1.80;;;6.30;99.90;;;;;;5023349;28;20447;-49
2021/12/01 02:25:51;;;;;;;4.13;1.83;;;6.30;99.90;;;;;;5022965;28;20467;-51
2021/12/01 02:28:17;;;;;;;1.90;1.53;;;6.30;99.90;;;;;;5020930;28;20470;-49
2021/12/01 02:30:43;;;;;;;5.13;2.30;;;6.40;99.90;;;;;;5020640;28;20207;-52
2021/12/01 02:33:08;;;;;;;2.10;1.80;;;6.40;99.90;;;;;;5015875;28;20186;-53
2021/12/01 02:35:34;;;;;;;2.00;1.73;;;6.40;99.90;;;;;;5008117;28;20196;-49
2021/12/01 02:38:02;;;;;;;2.47;1.80;;;6.40;99.90;;;;;;5020487;28;20223;-48
2021/12/01 02:40:28;;;;;;;2.53;1.80;;;6.40;99.90;;;;;;5016403;28;20188;-53
2021/12/01 02:42:54;;;;;;;2.63;2.00;;;6.40;99.90;;;;;;5022429;28;20457;-52
2021/12/01 02:45:20;;;;;;;2.13;1.77;;;6.40;99.90;;;;;;5024160;28;20208;-50
2021/12/01 02:47:46;;;;;;;4.20;2.20;;;6.40;99.90;;;;;;5023671;28;20626;-52
2021/12/01 02:50:11;;;;;;;2.97;1.70;;;6.40;99.90;;;;;;5008009;28;20180;-54
2021/12/01 02:52:37;;;;;;;2.23;1.60;;;6.50;99.90;;;;;;5005553;28;20787;-49
2021/12/01 02:55:06;;;;;;;3.60;1.83;;;6.50;99.90;;;;;;5004528;28;20231;-53
2021/12/01 02:58:01;;;;;;;1.60;1.40;;;6.50;99.90;;;;;;5023702;28;20508;-51
2021/12/01 03:00:27;;;;;;;1.80;1.50;;;6.50;99.90;;;;;;4998002;28;20840;-51
2021/12/01 03:02:53;;;;;;;2.00;1.50;;;6.50;99.90;;;;;;5023483;28;20450;-54
2021/12/01 03:05:20;;;;;;;3.03;2.03;;;6.50;99.90;;;;;;5022768;28;20216;-53
2021/12/01 03:07:45;;;;;;;2.17;1.90;;;6.50;99.90;;;;;;5023725;28;20443;-52
2021/12/01 03:10:12;;;;;;;1.80;1.50;;;6.50;99.90;;;;;;5021381;28;20447;-53
2021/12/01 03:12:40;;;;;;;4.43;1.77;;;6.50;99.90;;;;;;5022620;28;20184;-54
2021/12/01 03:15:09;;;;;;;2.10;1.70;;;6.50;99.90;;;;;;5019023;28;20435;-54
2021/12/01 03:17:35;;;;;;;1.97;1.60;;;6.50;99.90;;;;;;5015290;28;20527;-53
2021/12/01 03:20:01;;;;;;;2.33;1.60;;;6.50;99.90;;;;;;5007473;28;20435;-53
2021/12/01 03:22:27;;;;;;;1.50;1.10;;;6.50;99.90;;;;;;5007851;28;20195;-52
2021/12/01 03:24:53;;;;;;;3.63;1.80;;;6.50;99.90;;;;;;5021262;28;20461;-49
2021/12/01 03:27:19;;;;;;;1.57;1.47;;;6.50;99.90;;;;;;5003601;28;21091;-52
2021/12/01 03:29:47;;;;;;;1.90;1.60;;;6.50;99.90;;;;;;5021332;28;20438;-52
2021/12/01 03:32:13;;;;;;;2.73;2.10;;;6.50;99.90;;;;;;5020962;28;20427;-53
2021/12/01 03:34:40;;;;;;;2.70;1.63;;;6.50;99.90;;;;;;5019805;28;20775;-52
2021/12/01 03:37:07;;;;;;;2.10;1.60;;;6.60;99.90;;;;;;5017283;28;20497;-54
2021/12/01 03:39:32;;;;;;;3.10;2.10;;;6.60;99.90;;;;;;5019910;28;20435;-49
2021/12/01 03:41:58;;;;;;;2.37;1.67;;;6.60;99.90;;;;;;5021894;28;20438;-53
2021/12/01 03:44:24;;;;;;;3.80;1.67;;;6.60;99.90;;;;;;5022968;28;20180;-52
2021/12/01 03:46:50;;;;;;;3.40;1.80;;;6.60;99.90;;;;;;5023172;28;20645;-55
2021/12/01 03:49:16;;;;;;;1.73;1.50;;;6.70;99.90;;;;;;5020511;28;20224;-55
2021/12/01 03:51:41;;;;;;;2.07;1.70;;;6.70;99.90;;;;;;5024410;28;20470;-51
2021/12/01 03:54:07;;;;;;;3.37;1.77;;;6.70;99.90;;;;;;5020950;28;20184;-48
2021/12/01 03:56:33;;;;;;;2.77;1.77;;;6.70;99.90;;;;;;5022403;28;20212;-51
2021/12/01 03:59:00;;;;;;;1.90;1.57;;;6.80;99.90;;;;;;5002402;28;20204;-50
2021/12/01 04:01:27;;;;;;;4.50;1.60;;;6.80;99.90;;;;;;5021984;28;20556;-50
2021/12/01 04:03:52;;;;;;;1.93;1.50;;;6.80;99.90;;;;;;5018430;28;20511;-49
2021/12/01 04:06:18;;;;;;;1.97;1.60;;;6.80;99.90;;;;;;5021594;28;20674;-49
2021/12/01 04:08:46;;;;;;;2.27;1.80;;;6.90;99.90;;;;;;5018182;28;20208;-51
2021/12/01 04:11:12;;;;;;;2.60;2.10;;;6.90;99.90;;;;;;5018157;28;20546;-50
2021/12/01 04:13:37;;;;;;;2.53;1.40;;;6.90;99.90;;;;;;5021814;28;20438;-50
2021/12/01 04:16:03;;;;;;;2.37;1.40;;;7.00;99.90;;;;;;5020945;28;20532;-50
2021/12/01 04:18:29;;;;;;;2.40;1.50;;;7.00;99.90;;;;;;5022691;28;20212;-49
2021/12/01 04:20:55;;;;;;;2.37;1.47;;;7.00;99.90;;;;;;5022377;28;21101;-48
2021/12/01 04:23:21;;;;;;;3.17;1.87;;;7.00;99.90;;;;;;5008840;28;20305;-50
2021/12/01 04:25:47;;;;;;;1.60;1.30;;;7.10;99.90;;;;;;5002108;28;20286;-50
2021/12/01 04:28:12;;;;;;;2.03;1.53;;;7.10;99.90;;;;;;5023899;28;20335;-49
2021/12/01 04:30:38;;;;;;;1.60;1.50;;;7.10;99.90;;;;;;5020629;28;20180;-51
2021/12/01 04:33:04;;;;;;;1.87;1.40;;;7.10;99.90;;;;;;5008008;28;20206;-49
2021/12/01 04:35:30;;;;;;;1.67;1.50;;;7.10;99.90;;;;;;5008674;28;20442;-50
2021/12/01 04:37:57;;;;;;;1.60;1.30;;;7.20;99.90;;;;;;5023014;28;20223;-52
2021/12/01 04:40:24;;;;;;;1.60;1.23;;;7.20;99.90;;;;;;5010268;28;20535;-53
2021/12/01 04:42:50;;;;;;;1.50;1.20;;;7.20;99.90;;;;;;5025006;28;20442;-48
2021/12/01 04:45:18;;;;;;;3.60;1.40;;;7.20;99.90;;;;;;5007549;28;20564;-49
2021/12/01 04:47:54;;;;;;;2.00;1.40;;;7.20;99.90;;;;;;5007097;28;20908;-48
2021/12/01 04:50:23;;;;;;;1.40;1.10;;;7.20;99.90;;;;;;5026562;28;20485;-52
2021/12/01 04:52:51;;;;;;;1.80;1.20;;;7.30;99.90;;;;;;5007130;28;20521;-51
2021/12/01 04:55:17;;;;;;;1.63;1.30;;;7.30;99.90;;;;;;5016495;28;20448;-52
2021/12/01 04:57:45;;;;;;;1.80;1.50;;;7.30;99.90;;;;;;5008643;28;21098;-48
2021/12/01 05:00:14;;;;;;;2.77;1.50;;;7.30;99.90;;;;;;5019775;28;20182;-50
2021/12/01 05:02:40;;;;;;;1.80;1.40;;;7.30;99.90;;;;;;5025617;28;20427;-52
2021/12/01 05:05:06;;;;;;;2.17;1.23;;;7.40;99.90;;;;;;5003987;28;20938;-49
2021/12/01 05:07:33;;;;;;;1.60;1.33;;;7.40;99.90;;;;;;5019357;28;20896;-48
2021/12/01 05:09:58;;;;;;;1.70;1.20;;;7.40;99.90;;;;;;5021312;28;20426;-50
2021/12/01 05:12:24;;;;;;;1.47;1.37;;;7.40;99.90;;;;;;5024999;28;20487;-49
2021/12/01 05:14:51;;;;;;;2.60;1.20;;;7.40;99.90;;;;;;5026079;28;20254;-51
2021/12/01 05:17:19;;;;;;;2.10;1.43;;;7.40;99.90;;;;;;5010819;28;20512;-52
2021/12/01 05:19:44;;;;;;;1.73;1.43;;;7.40;99.90;;;;;;5025835;28;20954;-51
2021/12/01 05:22:10;;;;;;;2.97;1.40;;;7.40;99.90;;;;;;5019453;28;20443;-52
2021/12/01 05:24:36;;;;;;;1.57;1.40;;;7.40;99.90;;;;;;5026362;28;20231;-51
2021/12/01 05:27:02;;;;;;;1.40;1.13;;;7.40;99.90;;;;;;5021494;28;20677;-51
2021/12/01 05:29:28;;;;;;;1.67;1.10;;;7.40;99.90;;;;;;5006357;28;20290;-51
2021/12/01 05:31:54;;;;;;;1.60;1.10;;;7.40;99.90;;;;;;5021590;28;20561;-51
2021/12/01 05:34:20;;;;;;;1.80;1.40;;;7.40;99.90;;;;;;5024702;28;20803;-48
2021/12/01 05:36:47;;;;;;;1.37;1.10;;;7.50;99.90;;;;;;5024724;28;20445;-51
2021/12/01 05:39:13;;;;;;;2.03;1.17;;;7.50;99.90;;;;;;5013073;28;20349;-50
2021/12/01 05:41:38;;;;;;;1.53;1.10;;;7.50;99.90;;;;;;5008650;28;20518;-49
2021/12/01 05:44:05;;;;;;;2.40;1.20;;;7.50;99.90;;;;;;5023765;28;20183;-54
2021/12/01 05:46:30;;;;;;;1.40;1.10;;;7.60;99.90;;;;;;5022565;28;20381;-48
2021/12/01 05:48:56;;;;;;;1.60;1.20;;;7.60;99.90;;;;;;5024419;28;20520;-51
2021/12/01 05:51:22;;;;;;;2.13;1.30;;;7.60;99.90;;;;;;5009828;28;20176;-48
2021/12/01 05:53:49;;;;;;;1.70;1.30;;;7.60;99.90;;;;;;5019194;28;20291;-49
2021/12/01 05:56:15;;;;;;;1.60;1.10;;;7.70;99.90;;;;;;5010214;28;20814;-52
2021/12/01 05:58:41;;;;;;;5.10;1.47;;;7.70;99.90;;;;;;5006921;28;20463;-52
2021/12/01 06:01:07;;;;;;;2.60;1.27;;;7.70;99.90;;;;;;5006944;28;20420;-52
2021/12/01 06:03:33;;;;;;;1.70;1.23;;;7.70;99.90;;;;;;5010175;28;20432;-53
2021/12/01 06:05:59;;;;;;;2.90;1.60;;;7.70;99.90;;;;;;5021194;28;20840;-50
2021/12/01 06:08:24;;;;;;;1.33;1.10;;;7.70;99.90;;;;;;5025195;28;20276;-49
2021/12/01 06:10:50;;;;;;;1.87;1.10;;;7.70;99.90;;;;;;5022052;28;20186;-53
2021/12/01 06:13:18;;;;;;;1.20;0.90;;;7.70;99.90;;;;;;5021801;28;20180;-49
2021/12/01 06:15:44;;;;;;;2.13;1.43;;;7.70;99.90;;;;;;5022425;28;20588;-50
2021/12/01 06:18:11;;;;;;;2.80;1.00;;;7.70;99.90;;;;;;5023565;28;20491;-50
2021/12/01 06:20:37;;;;;;;1.60;1.10;;;7.80;99.90;;;;;;5024622;28;20768;-49
2021/12/01 06:23:03;;;;;;;1.30;1.10;;;7.80;99.90;;;;;;5003209;28;20594;-48
2021/12/01 06:25:28;;;;;;;1.80;1.37;;;7.80;99.90;;;;;;5023417;28;20571;-53
2021/12/01 06:27:55;;;;;;;1.20;1.00;;;7.80;99.90;;;;;;5020436;28;20284;-51
2021/12/01 06:30:21;;;;;;;2.67;1.20;;;7.80;99.90;;;;;;5019904;28;20215;-51
2021/12/01 06:32:48;;;;;;;1.67;1.37;;;7.90;99.90;;;;;;5006272;28;20442;-51
2021/12/01 06:35:14;;;;;;;1.90;1.17;;;7.90;99.90;;;;;;5022269;28;20470;-50
2021/12/01 06:37:39;;;;;;;1.40;1.30;;;8.00;99.90;;;;;;5021602;28;20477;-51
2021/12/01 06:40:06;;;;;;;1.90;1.03;;;8.00;99.90;;;;;;5020194;28;20624;-52
2021/12/01 06:42:35;;;;;;;2.23;1.10;;;8.00;99.90;;;;;;5020148;28;20704;-50
2021/12/01 06:45:01;;;;;;;1.93;1.50;;;8.10;99.90;;;;;;5015248;28;20486;-49
2021/12/01 06:47:27;;;;;;;1.33;1.00;;;8.10;99.90;;;;;;5012160;28;21000;-47
2021/12/01 06:49:53;;;;;;;1.30;1.00;;;8.10;99.90;;;;;;4990964;28;20489;-47
2021/12/01 06:52:19;;;;;;;2.73;1.30;;;8.10;99.90;;;;;;5022342;28;20173;-47
2021/12/01 06:54:44;;;;;;;1.70;1.30;;;8.10;99.90;;;;;;5022689;28;20512;-49
2021/12/01 06:57:10;;;;;;;1.40;0.97;;;8.10;99.90;;;;;;5027318;28;20200;-51
2021/12/01 06:59:36;;;;;;;2.43;1.30;;;8.10;99.90;;;;;;4999285;28;20189;-52
2021/12/01 07:02:02;;;;;;;1.40;1.13;;;8.10;99.90;;;;;;5005697;28;20541;-49
2021/12/01 07:04:29;;;;;;;2.90;1.10;;;8.10;99.90;;;;;;5010577;28;20189;-51
2021/12/01 07:06:55;;;;;;;2.97;1.23;;;8.10;99.90;;;;;;5021487;28;20599;-48
2021/12/01 07:09:21;;;;;;;3.53;1.30;;;8.20;99.90;;;;;;5021278;28;20545;-53
2021/12/01 07:11:46;;;;;;;2.93;1.40;;;8.10;99.90;;;;;;5022010;28;20184;-49
2021/12/01 07:14:12;;;;;;;1.27;1.00;;;8.10;99.90;;;;;;5019945;28;20453;-52
2021/12/01 07:16:38;;;;;;;1.23;1.00;;;8.10;99.90;;;;;;5010174;28;20180;-48
2021/12/01 07:19:04;;;;;;;5.77;1.30;;;8.10;99.90;;;;;;5020312;28;20479;-50
2021/12/01 07:21:29;;;;;;;1.33;1.20;;;8.10;99.90;;;;;;5021439;28;20181;-51
2021/12/01 07:23:55;;;;;;;1.60;1.30;;;8.20;99.90;;;;;;5020953;28;20193;-49
2021/12/01 07:26:21;;;;;;;2.20;1.03;;;8.20;99.90;;;;;;5019221;28;20216;-54
2021/12/01 07:28:46;;;;;;;2.10;1.20;;;8.20;99.90;;;;;;5018148;28;20774;-49
2021/12/01 07:31:12;;;;;;;3.53;1.40;;;8.30;99.90;;;;;;5020533;28;20188;-49
2021/12/01 07:33:37;;;;;;;1.80;1.50;;;8.30;99.90;;;;;;5017157;28;20177;-51
2021/12/01 07:36:04;;;;;;;1.20;0.90;;;8.40;99.90;;;;;;5013543;28;20670;-51
2021/12/01 07:38:30;;;;;;;1.30;1.17;;;8.40;99.90;;;;;;5018827;28;20205;-50
2021/12/01 07:40:56;;;;;;;1.90;1.10;;;8.40;99.90;;;;;;5020647;28;20450;-49
2021/12/01 07:43:22;;;;;;;2.20;1.20;;;8.50;99.90;;;;;;5020848;28;20211;-49
2021/12/01 07:45:47;;;;;;;1.20;0.90;;;8.50;99.90;;;;;;5022108;28;20202;-49
2021/12/01 07:48:13;;;;;;;1.70;1.30;;;8.50;99.90;;;;;;5020676;28;20251;-52
2021/12/01 07:50:40;;;;;;;1.67;1.20;;;8.50;99.90;;;;;;5019042;28;20189;-47
2021/12/01 07:53:06;;;;;;;1.43;1.10;;;8.50;99.90;;;;;;5020216;28;20423;-52
2021/12/01 07:55:32;;;;;;;1.40;1.07;;;8.50;99.90;;;;;;5003134;28;20455;-49
2021/12/01 07:57:58;;;;;;;3.20;1.10;;;8.50;99.90;;;;;;5025034;28;20498;-51
2021/12/01 08:00:23;;;;;;;1.30;1.10;;;8.50;99.90;;;;;;5020328;28;20430;-54
2021/12/01 08:02:49;;;;;;;1.20;1.00;;;8.60;99.90;;;;;;5002511;28;20234;-50
2021/12/01 08:05:14;;;;;;;2.47;1.30;;;8.60;99.90;;;;;;5003731;28;20204;-51
2021/12/01 08:07:40;;;;;;;1.87;1.27;;;8.60;99.90;;;;;;5022952;28;20227;-48
2021/12/01 08:10:07;;;;;;;1.57;1.17;;;8.60;99.90;;;;;;5021016;28;20169;-52
2021/12/01 08:12:34;;;;;;;1.70;1.10;;;8.60;99.90;;;;;;5002110;28;20299;-50
2021/12/01 08:15:03;;;;;;;1.97;1.20;;;8.70;99.90;;;;;;5010264;28;20439;-51
2021/12/01 08:17:29;;;;;;;1.50;1.20;;;8.70;99.90;;;;;;5005356;28;20455;-51
2021/12/01 08:19:57;;;;;;;1.23;1.07;;;8.70;99.90;;;;;;5022275;28;20434;-49
2021/12/01 08:22:27;;;;;;;2.00;1.30;;;8.70;99.90;;;;;;5017751;28;20810;-50
2021/12/01 08:24:54;;;;;;;1.60;1.10;;;8.70;99.90;;;;;;5021320;28;20431;-51
2021/12/01 08:27:29;;;;;;;4.23;1.00;;;8.70;99.90;;;;;;5021779;28;20507;-48
2021/12/01 08:29:55;;;;;;;1.37;1.20;;;8.70;99.90;;;;;;5021399;28;20792;-50
2021/12/01 08:32:21;;;;;;;1.40;1.20;;;8.70;99.90;;;;;;5019478;28;20439;-49
2021/12/01 08:34:51;;;;;;;1.30;1.07;;;8.70;99.90;;;;;;5022339;28;20480;-51
2021/12/01 08:37:18;;;;;;;1.50;1.10;;;8.80;99.90;;;;;;5016715;28;20526;-52
2021/12/01 08:39:48;;;;;;;1.90;1.00;;;8.80;99.90;;;;;;4999470;28;20548;-51
2021/12/01 08:42:16;;;;;;;1.30;1.10;;;8.80;99.90;;;;;;5020365;28;20483;-47
2021/12/01 08:44:45;;;;;;;1.30;1.00;;;8.90;99.90;;;;;;5022773;28;20928;-47
2021/12/01 08:47:12;;;;;;;1.77;1.10;;;8.90;99.90;;;;;;5009351;28;20462;-53
2021/12/01 08:49:39;;;;;;;1.47;1.17;;;8.90;99.90;;;;;;5008955;28;20462;-50
2021/12/01 08:52:05;;;;;;;1.73;1.23;;;8.90;99.90;;;;;;5021375;28;20780;-50
2021/12/01 08:54:30;;;;;;;2.03;1.13;;;9.00;99.90;;;;;;5022738;28;20477;-53
2021/12/01 08:56:57;;;;;;;1.73;1.13;;;9.00;99.90;;;;;;5019769;28;20932;-52
2021/12/01 08:59:23;;;;;;;1.20;0.90;;;9.10;99.90;;;;;;5015303;28;20290;-51
2021/12/01 09:01:49;;;;;;;1.20;0.90;;;9.10;99.90;;;;;;5016487;28;20505;-48
2021/12/01 09:04:15;;;;;;;2.43;1.10;;;9.10;99.90;;;;;;5020187;28;20710;-51
2021/12/01 09:06:41;;;;;;;1.80;1.40;;;9.10;99.90;;;;;;5007413;28;20579;-50
2021/12/01 09:09:06;;;;;;;1.20;0.90;;;9.10;99.90;;;;;;5019397;28;20764;-51
2021/12/01 09:11:32;;;;;;;3.10;1.17;;;9.20;99.90;;;;;;5021086;28;20188;-53
2021/12/01 09:13:57;;;;;;;1.67;1.20;;;9.20;99.90;;;;;;5020956;28;20191;-51
2021/12/01 09:16:23;;;;;;;1.30;1.03;;;9.20;99.90;;;;;;5007097;28;20180;-53
2021/12/01 09:18:49;;;;;;;1.50;1.00;;;9.30;99.90;;;;;;5018803;28;20736;-49
2021/12/01 09:21:15;;;;;;;2.57;1.10;;;9.30;99.90;;;;;;5020272;28;20563;-51
2021/12/01 09:23:41;;;;;;;1.47;1.03;;;9.30;99.90;;;;;;5022795;28;20442;-54
2021/12/01 09:26:08;;;;;;;1.43;0.97;;;9.40;99.90;;;;;;5020645;28;21283;-55
2021/12/01 09:28:33;;;;;;;2.10;1.40;;;9.40;99.90;;;;;;5023543;28;20204;-51
2021/12/01 09:30:59;;;;;;;1.50;1.10;;;9.40;99.90;;;;;;5022127;28;20420;-50
2021/12/01 09:33:25;;;;;;;1.20;0.90;;;9.50;99.90;;;;;;5020935;28;20189;-52
2021/12/01 09:35:51;;;;;;;1.20;0.90;;;9.50;99.90;;;;;;5020696;28;20214;-51
2021/12/01 09:38:18;;;;;;;3.00;1.20;;;9.50;99.90;;;;;;5018162;28;20469;-52
2021/12/01 09:40:49;;;;;;;1.40;1.00;;;9.50;99.90;;;;;;5021957;28;20442;-51
2021/12/01 09:43:17;;;;;;;1.80;1.13;;;9.50;99.90;;;;;;5011145;28;20419;-53
2021/12/01 09:45:44;;;;;;;1.80;1.43;;;9.50;99.90;;;;;;5023813;28;20834;-51
2021/12/01 09:48:09;;;;;;;1.20;1.00;;;9.50;99.90;;;;;;5022721;28;20836;-52
2021/12/01 09:50:35;;;;;;;1.33;1.00;;;9.60;99.90;;;;;;5022682;28;20505;-50
2021/12/01 09:53:01;;;;;;;1.37;1.00;;;9.60;99.90;;;;;;5023279;28;20848;-51
2021/12/01 09:55:27;;;;;;;1.20;1.00;;;9.60;99.90;;;;;;5024209;28;20331;-53
2021/12/01 09:57:59;;;;;;;1.27;1.00;;;9.60;99.90;;;;;;5023420;28;20213;-52
2021/12/01 10:00:26;;;;;;;1.47;1.00;;;9.70;99.90;;;;;;5020844;28;20259;-49
2021/12/01 10:02:51;;;;;;;1.37;1.00;;;9.60;99.90;;;;;;5022860;28;20854;-52
2021/12/01 10:06:04;;;;;;;1.30;1.07;;;9.60;99.90;;;;;;5023403;28;20982;-47
2021/12/01 10:08:31;;;;;;;1.40;1.00;;;9.60;99.90;;;;;;5021612;28;20208;-52
2021/12/01 10:10:58;;;;;;;2.63;1.07;;;9.60;99.90;;;;;;5016614;28;20733;-51
2021/12/01 10:13:27;;;;;;;1.33;1.00;;;9.60;99.90;;;;;;5025621;28;20423;-50
2021/12/01 10:15:54;;;;;;;1.43;0.93;;;9.50;99.90;;;;;;5016673;28;20438;-52
2021/12/01 10:18:19;;;;;;;1.50;1.30;;;9.40;99.90;;;;;;5019325;28;20542;-52
2021/12/01 10:21:05;;;;;;;1.50;1.00;;;9.40;99.90;;;;;;5022771;28;20535;-49
2021/12/01 10:23:31;;;;;;;1.33;0.83;;;9.40;99.90;;;;;;5019275;28;20275;-54
2021/12/01 10:26:15;;;;;;;1.40;1.10;;;9.30;99.90;;;;;;5019841;28;20474;-49
2021/12/01 10:28:43;;;;;;;1.90;1.30;;;9.30;99.90;;;;;;5018556;28;20443;-53
2021/12/01 10:31:11;;;;;;;1.80;1.03;;;9.30;99.90;;;;;;5018005;28;20446;-54
2021/12/01 10:33:36;;;;;;;1.40;0.90;;;9.30;99.90;;;;;;5020881;28;20439;-51
2021/12/01 10:36:07;;;;;;;1.40;0.93;;;9.30;99.90;;;;;;5012070;28;20438;-51
2021/12/01 10:38:36;;;;;;;1.57;1.13;;;9.20;99.90;;;;;;5019166;28;20725;-52
2021/12/01 10:41:12;;;;;;;1.30;1.00;;;9.30;99.90;;;;;;5022527;28;20517;-51
2021/12/01 10:43:42;;;;;;;1.60;0.93;;;9.30;99.90;;;;;;5021955;28;20438;-51
2021/12/01 10:46:11;;;;;;;1.30;1.03;;;9.30;99.90;;;;;;5006897;28;20991;-51
2021/12/01 10:48:37;;;;;;;1.40;1.10;;;9.30;99.90;;;;;;5021864;28;20469;-52
2021/12/01 10:51:03;;;;;;;1.30;1.00;;;9.40;99.90;;;;;;5008950;28;20428;-49
2021/12/01 10:53:30;;;;;;;1.50;1.10;;;9.40;99.90;;;;;;5021671;28;20431;-48
2021/12/01 10:56:02;;;;;;;1.30;1.00;;;9.40;99.90;;;;;;5018723;28;20434;-52
2021/12/01 10:58:33;;;;;;;1.40;1.10;;;9.40;99.90;;;;;;5018803;28;20447;-53
2021/12/01 11:01:01;;;;;;;1.20;1.00;;;9.40;99.90;;;;;;5020476;28;20432;-52
2021/12/01 11:03:30;;;;;;;1.40;1.03;;;9.30;99.90;;;;;;5010086;28;20437;-52
2021/12/01 11:06:09;;;;;;;3.50;1.17;;;9.20;99.90;;;;;;5006744;28;20467;-50
2021/12/01 11:08:37;;;;;;;1.30;0.90;;;9.20;99.90;;;;;;5020406;28;20450;-50
2021/12/01 11:11:09;;;;;;;1.17;0.90;;;9.20;99.90;;;;;;5010380;28;20447;-49
2021/12/01 11:13:36;;;;;;;1.40;1.10;;;9.20;99.90;;;;;;5019346;28;20420;-49
2021/12/01 11:16:06;;;;;;;1.97;0.90;;;9.20;99.90;;;;;;5022063;28;20956;-48
2021/12/01 11:18:34;;;;;;;1.20;1.10;;;9.10;99.90;;;;;;5016162;28;20593;-51
2021/12/01 11:21:12;;;;;;;1.50;1.00;;;9.20;99.90;;;;;;5020217;28;20424;-47
2021/12/01 11:23:49;;;;;;;2.40;1.27;;;9.10;99.90;;;;;;5021464;28;20528;-47
2021/12/01 11:26:21;;;;;;;1.30;1.00;;;9.10;99.90;;;;;;5020209;28;20508;-50
2021/12/01 11:28:55;;;;;;;1.13;1.00;;;9.10;99.90;;;;;;5021076;28;20446;-52
2021/12/01 11:31:22;;;;;;;1.30;0.97;;;9.10;99.90;;;;;;5021172;28;20427;-51
2021/12/01 11:33:49;;;;;;;1.80;1.57;;;9.10;99.90;;;;;;5018722;28;20510;-51
2021/12/01 11:36:18;;;;;;;1.30;1.00;;;9.10;99.90;;;;;;5023927;28;20427;-52
2021/12/01 11:38:53;;;;;;;1.30;1.20;;;9.20;99.90;;;;;;5021956;28;20485;-49
2021/12/01 11:41:20;;;;;;;3.53;1.37;;;9.20;99.90;;;;;;5023107;28;20434;-49
2021/12/01 11:43:47;;;;;;;1.37;1.13;;;9.20;99.90;;;;;;5022942;28;20884;-51
2021/12/01 11:46:13;;;;;;;1.30;1.00;;;9.30;99.90;;;;;;5022554;28;20473;-52
2021/12/01 11:48:48;;;;;;;3.00;1.20;;;9.30;99.90;;;;;;5018585;28;20463;-50
2021/12/01 11:51:15;;;;;;;1.70;1.17;;;9.30;99.90;;;;;;5017011;28;20416;-54
2021/12/01 11:53:47;;;;;;;1.57;1.10;;;9.30;99.90;;;;;;5019231;28;20430;-50
2021/12/01 11:56:20;;;;;;;2.13;1.23;;;9.40;99.90;;;;;;5015126;28;20427;-53
2021/12/01 11:59:14;;;;;;;1.50;0.90;;;9.40;99.90;;;;;;5020418;28;20485;-50
2021/12/01 12:02:13;;;;;;;1.43;1.00;;;9.40;99.90;;;;;;5011661;28;20454;-54
2021/12/01 12:04:46;;;;;;;1.10;0.90;;;9.40;99.90;;;;;;5007887;28;20816;-52
2021/12/01 12:07:19;;;;;;;1.50;1.20;;;9.50;99.90;;;;;;5020729;28;20428;-51
2021/12/01 12:10:19;;;;;;;3.67;1.40;;;9.50;99.90;;;;;;5012594;28;20476;-52
2021/12/01 12:12:48;;;;;;;2.07;1.57;;;9.50;99.90;;;;;;5019196;28;20790;-53
2021/12/01 12:15:46;;;;;;;1.87;1.20;;;9.50;99.90;;;;;;5022771;28;20470;-54
2021/12/01 12:18:33;;;;;;;1.40;1.10;;;9.60;99.90;;;;;;5016922;28;20497;-50
2021/12/01 12:24:19;;;;;;;1.30;1.10;;;9.60;99.90;;;;;;5020438;28;20427;-54
2021/12/01 12:26:52;;;;;;;1.40;1.10;;;9.60;99.90;;;;;;5020863;28;20462;-52
2021/12/01 12:29:22;;;;;;;1.87;1.10;;;9.50;99.90;;;;;;5019695;28;20521;-51
2021/12/01 12:31:50;;;;;;;1.10;0.90;;;9.60;99.90;;;;;;5008776;28;20963;-49
2021/12/01 12:34:17;;;;;;;1.73;1.00;;;9.60;99.90;;;;;;5020330;28;20462;-51
2021/12/01 12:36:56;;;;;;;1.50;1.30;;;9.50;99.90;;;;;;5020539;28;20654;-51
2021/12/01 12:39:23;;;;;;;3.40;1.30;;;9.60;99.90;;;;;;5022392;28;20543;-49
2021/12/01 12:41:55;;;;;;;1.97;1.30;;;9.50;99.90;;;;;;5016812;28;20493;-54
2021/12/01 12:44:47;;;;;;;1.30;1.13;;;9.50;99.90;;;;;;5016463;28;20441;-51
2021/12/01 12:47:24;;;;;;;1.93;1.13;;;9.50;99.90;;;;;;5014429;28;20440;-54
2021/12/01 12:49:51;;;;;;;3.37;1.50;;;9.50;99.90;;;;;;5016666;28;20457;-53
2021/12/01 12:52:26;;;;;;;3.93;1.10;;;9.50;99.90;;;;;;5017966;28;20434;-50
2021/12/01 12:54:53;;;;;;;1.77;1.03;;;9.50;99.90;;;;;;5023123;28;20508;-51
2021/12/01 12:57:20;;;;;;;7.33;1.83;;;9.60;99.90;;;;;;5019502;28;20466;-47
2021/12/01 12:59:46;;;;;;;1.50;1.40;;;9.60;99.90;;;;;;5016321;28;20431;-53
2021/12/01 13:02:14;;;;;;;2.80;1.67;;;9.60;99.90;;;;;;5018844;28;20407;-51
2021/12/01 13:07:32;;;;;;;2.10;1.03;;;9.60;99.90;;;;;;5026262;28;20504;-51
2021/12/01 13:10:25;;;;;;;2.30;1.67;;;9.60;99.90;;;;;;5021236;28;20419;-47
2021/12/01 13:12:50;;;;;;;1.70;1.23;;;9.50;99.90;;;;;;5024203;28;20428;-49
2021/12/01 13:15:24;;;;;;;1.40;1.10;;;9.60;99.90;;;;;;5024450;28;20431;-54